Time;durP1;ratioP1;P1;durP2;ratioP2;P2;SDS_P1;SDS_P2;PMS_P1;PMS_P2;Temp;Humidity;BMP_temperature;BMP_pressure;BME280_temperature;BME280_humidity;BME280_pressure;Samples;Min_cycle;Max_cycle;Signal;HPM_P1;HPM_P2
2024/03/04 00:01:26;;;;;;;33.10;16.83;;;5.30;99.90;;;;;;5069797;28;20175;-86
2024/03/04 00:03:52;;;;;;;29.58;17.23;;;5.10;99.90;;;;;;5053460;28;20119;-86
2024/03/04 00:06:19;;;;;;;34.47;17.80;;;5.20;99.90;;;;;;5075305;28;20490;-86
2024/03/04 00:08:46;;;;;;;37.95;18.13;;;5.10;99.90;;;;;;5070422;28;20048;-85
2024/03/04 00:11:13;;;;;;;33.33;16.98;;;5.40;99.90;;;;;;5052925;28;20041;-85
2024/03/04 00:13:39;;;;;;;36.97;18.80;;;5.90;99.90;;;;;;5052959;28;20073;-86
2024/03/04 00:16:06;;;;;;;31.63;17.83;;;5.20;99.90;;;;;;5069308;28;20120;-86
2024/03/04 00:18:33;;;;;;;33.28;17.55;;;5.20;99.90;;;;;;5053024;28;20099;-86
2024/03/04 00:20:59;;;;;;;29.10;15.77;;;5.20;99.90;;;;;;5062711;28;20037;-86
2024/03/04 00:23:26;;;;;;;30.45;16.23;;;5.10;99.90;;;;;;5073781;28;20517;-86
2024/03/04 00:25:53;;;;;;;31.88;16.40;;;5.60;99.90;;;;;;5052724;28;20049;-86
2024/03/04 00:28:19;;;;;;;30.60;16.15;;;5.10;99.90;;;;;;5075252;28;20059;-86
2024/03/04 00:30:46;;;;;;;31.55;17.48;;;5.10;99.90;;;;;;5061746;28;20079;-86
2024/03/04 00:33:15;;;;;;;34.85;17.00;;;5.10;99.90;;;;;;5069844;28;20042;-86
2024/03/04 00:35:43;;;;;;;34.60;17.52;;;5.40;99.90;;;;;;5081082;28;20048;-86
2024/03/04 00:38:09;;;;;;;30.23;16.85;;;5.00;99.90;;;;;;5086486;28;20418;-86
2024/03/04 00:40:36;;;;;;;29.42;16.13;;;5.20;99.90;;;;;;5056184;28;20041;-86
2024/03/04 00:43:04;;;;;;;32.75;17.88;;;5.30;99.90;;;;;;5068633;28;20121;-86
2024/03/04 00:45:34;;;;;;;37.25;18.25;;;5.00;99.90;;;;;;5057049;28;20509;-85
2024/03/04 00:48:02;;;;;;;31.60;17.20;;;5.00;99.90;;;;;;5052327;28;20414;-86
2024/03/04 00:50:30;;;;;;;37.58;18.55;;;5.10;99.90;;;;;;5068570;28;20505;-85
2024/03/04 00:52:58;;;;;;;31.55;17.42;;;5.40;99.90;;;;;;5069529;28;20384;-86
2024/03/04 00:55:25;;;;;;;31.30;16.77;;;5.60;99.90;;;;;;5068364;28;20029;-86
2024/03/04 00:57:52;;;;;;;33.42;17.33;;;5.00;99.90;;;;;;5074294;28;20497;-86
2024/03/04 01:00:19;;;;;;;36.80;17.98;;;5.60;99.90;;;;;;5051776;28;20037;-86
2024/03/04 01:02:45;;;;;;;31.95;17.73;;;5.00;99.90;;;;;;5068450;28;20029;-86
2024/03/04 01:05:12;;;;;;;34.05;17.65;;;4.90;99.90;;;;;;5068549;28;20030;-85
2024/03/04 01:07:39;;;;;;;35.50;17.92;;;5.50;99.90;;;;;;5045262;28;20133;-86
2024/03/04 01:10:06;;;;;;;34.05;18.20;;;4.90;99.90;;;;;;5072628;28;20847;-86
2024/03/04 01:12:32;;;;;;;30.80;17.05;;;4.90;99.90;;;;;;5051880;28;20555;-85
2024/03/04 01:15:00;;;;;;;35.13;18.95;;;4.90;99.90;;;;;;5051942;28;20037;-86
2024/03/04 01:17:28;;;;;;;36.75;17.95;;;4.90;99.90;;;;;;5075652;28;20049;-86
2024/03/04 01:19:55;;;;;;;34.55;17.98;;;5.40;99.90;;;;;;5075038;28;20042;-86
2024/03/04 01:22:22;;;;;;;36.05;19.27;;;5.40;99.90;;;;;;5051828;28;20052;-86
2024/03/04 01:24:51;;;;;;;37.85;18.48;;;5.50;99.90;;;;;;5052573;28;20037;-86
2024/03/04 01:27:17;;;;;;;34.30;18.83;;;4.90;99.90;;;;;;5066513;28;20088;-86
2024/03/04 01:29:44;;;;;;;36.67;19.08;;;6.00;99.90;;;;;;5053018;28;20049;-86
2024/03/04 01:32:11;;;;;;;37.47;19.30;;;5.00;99.90;;;;;;5067618;28;20029;-86
2024/03/04 01:34:39;;;;;;;36.55;18.00;;;5.10;99.90;;;;;;5058634;28;20033;-86
2024/03/04 01:37:06;;;;;;;37.97;18.58;;;5.90;99.90;;;;;;5060867;28;20040;-86
2024/03/04 01:39:34;;;;;;;35.80;19.50;;;4.80;99.90;;;;;;5076514;28;20056;-86
2024/03/04 01:42:02;;;;;;;42.33;20.70;;;5.60;99.90;;;;;;5067936;28;20455;-86
2024/03/04 01:44:36;;;;;;;39.90;21.40;;;5.60;99.90;;;;;;5063912;28;20072;-86
2024/03/04 01:47:07;;;;;;;40.45;21.42;;;5.80;99.90;;;;;;5067918;28;20066;-86
2024/03/04 01:49:35;;;;;;;38.63;20.48;;;5.40;99.90;;;;;;5044219;28;20113;-86
2024/03/04 01:52:05;;;;;;;40.30;21.17;;;4.80;99.90;;;;;;5056834;28;20391;-86
2024/03/04 01:54:33;;;;;;;40.25;20.80;;;4.70;99.90;;;;;;5060986;28;20509;-86
2024/03/04 01:57:00;;;;;;;45.08;22.13;;;5.20;99.90;;;;;;5067153;28;20029;-86
2024/03/04 01:59:28;;;;;;;43.67;20.60;;;4.70;99.90;;;;;;5067135;28;20041;-86
2024/03/04 02:01:54;;;;;;;54.60;24.85;;;4.70;99.90;;;;;;5067299;28;20037;-85
2024/03/04 02:04:22;;;;;;;47.80;23.67;;;4.90;99.90;;;;;;5084308;28;20544;-86
2024/03/04 02:06:49;;;;;;;48.60;24.23;;;4.80;99.90;;;;;;5067315;28;20045;-86
2024/03/04 02:09:18;;;;;;;51.67;23.40;;;5.60;99.90;;;;;;5059972;28;20124;-86
2024/03/04 02:11:44;;;;;;;49.40;23.55;;;4.80;99.90;;;;;;5087029;28;20059;-86
2024/03/04 02:14:12;;;;;;;48.17;23.05;;;4.80;99.90;;;;;;5067047;28;20029;-86
2024/03/04 02:16:39;;;;;;;47.10;24.13;;;4.80;99.90;;;;;;5065740;28;20025;-86
2024/03/04 02:19:08;;;;;;;50.30;23.15;;;5.30;99.90;;;;;;5045950;28;20410;-86
2024/03/04 02:21:39;;;;;;;49.95;22.58;;;4.70;99.90;;;;;;5053064;28;20077;-86
2024/03/04 02:24:05;;;;;;;50.60;23.58;;;4.70;99.90;;;;;;5071212;28;20041;-86
2024/03/04 02:26:33;;;;;;;47.70;23.33;;;4.70;99.90;;;;;;5052664;28;20052;-86
2024/03/04 02:29:00;;;;;;;50.70;24.13;;;5.40;99.90;;;;;;5065061;28;20107;-86
2024/03/04 02:31:29;;;;;;;48.60;22.58;;;5.50;99.90;;;;;;5053554;28;20068;-86
2024/03/04 02:33:57;;;;;;;49.50;22.17;;;4.60;99.90;;;;;;5078405;28;20112;-86
2024/03/04 02:36:24;;;;;;;45.58;20.90;;;4.70;99.90;;;;;;5044813;28;20052;-86
2024/03/04 02:38:52;;;;;;;47.35;22.77;;;4.80;99.90;;;;;;5051206;28;20041;-85
2024/03/04 02:41:19;;;;;;;47.10;22.10;;;4.60;99.90;;;;;;5083054;28;20045;-86
2024/03/04 02:43:47;;;;;;;47.00;23.08;;;4.60;99.90;;;;;;5063708;28;20087;-86
2024/03/04 02:46:20;;;;;;;53.65;24.10;;;4.60;99.90;;;;;;5041810;28;20041;-86
2024/03/04 02:48:51;;;;;;;48.95;22.77;;;4.60;99.90;;;;;;5043744;28;20451;-86
2024/03/04 02:51:20;;;;;;;46.08;22.45;;;4.50;99.90;;;;;;5066460;28;20044;-86
2024/03/04 02:53:47;;;;;;;47.58;21.92;;;4.50;99.90;;;;;;5049873;28;20029;-86
2024/03/04 02:56:13;;;;;;;49.08;22.70;;;4.50;99.90;;;;;;5055679;28;20599;-86
2024/03/04 02:58:40;;;;;;;46.80;21.50;;;4.50;99.90;;;;;;5071475;28;20037;-86
2024/03/04 03:01:07;;;;;;;45.67;21.95;;;4.90;99.90;;;;;;5068660;28;20041;-86
2024/03/04 03:03:33;;;;;;;44.97;22.17;;;5.10;99.90;;;;;;5082750;28;20128;-86
2024/03/04 03:06:00;;;;;;;45.85;22.42;;;4.50;99.90;;;;;;5069185;28;20958;-86
2024/03/04 03:08:27;;;;;;;44.00;22.02;;;4.50;99.90;;;;;;5066059;28;20173;-86
2024/03/04 03:10:53;;;;;;;44.58;22.13;;;4.50;99.90;;;;;;5050627;28;20504;-86
2024/03/04 03:13:20;;;;;;;52.92;24.60;;;4.50;99.90;;;;;;5062267;28;20038;-86
2024/03/04 03:15:48;;;;;;;53.88;24.00;;;4.50;99.90;;;;;;5060207;28;20697;-86
2024/03/04 03:18:17;;;;;;;45.17;22.85;;;4.70;99.90;;;;;;5066045;28;20048;-86
2024/03/04 03:20:44;;;;;;;50.45;24.13;;;5.20;99.90;;;;;;5075116;28;20087;-86
2024/03/04 03:23:10;;;;;;;48.03;23.83;;;5.20;99.90;;;;;;5051088;28;20034;-86
2024/03/04 03:25:37;;;;;;;49.53;24.30;;;4.60;99.90;;;;;;5069779;28;20052;-86
2024/03/04 03:28:04;;;;;;;47.28;23.42;;;4.60;99.90;;;;;;5078741;28;20053;-86
2024/03/04 03:30:31;;;;;;;59.42;24.67;;;4.70;99.90;;;;;;5065314;28;20045;-84
2024/03/04 03:32:58;;;;;;;56.53;25.83;;;5.50;99.90;;;;;;5049812;28;20596;-86
2024/03/04 03:35:25;;;;;;;67.07;25.88;;;5.20;99.90;;;;;;5066004;28;20099;-86
2024/03/04 03:37:51;;;;;;;66.68;27.70;;;6.10;99.90;;;;;;5052324;28;20106;-86
2024/03/04 03:40:18;;;;;;;132.32;29.95;;;5.10;99.90;;;;;;5086156;28;20158;-86
2024/03/04 03:42:45;;;;;;;110.43;28.00;;;5.00;99.90;;;;;;5063076;28;20051;-85
2024/03/04 03:45:12;;;;;;;340.33;36.53;;;5.20;99.90;;;;;;5054309;28;20464;-86
2024/03/04 03:47:38;;;;;;;260.38;33.10;;;5.00;99.90;;;;;;5062521;28;20132;-86
2024/03/04 03:50:05;;;;;;;231.48;32.78;;;5.10;99.90;;;;;;5060230;28;20044;-86
2024/03/04 03:52:34;;;;;;;262.10;36.90;;;5.10;99.90;;;;;;5063928;28;20458;-86
2024/03/04 03:55:00;;;;;;;166.38;29.42;;;5.60;99.90;;;;;;5064734;28;20083;-86
2024/03/04 03:57:27;;;;;;;214.68;31.90;;;5.10;99.90;;;;;;5049233;28;20124;-85
2024/03/04 03:59:54;;;;;;;123.00;29.95;;;6.10;99.90;;;;;;5068589;28;20033;-86
2024/03/04 04:02:20;;;;;;;78.47;26.35;;;6.00;99.90;;;;;;5048964;28;20406;-86
2024/03/04 04:04:47;;;;;;;70.15;25.60;;;5.10;99.90;;;;;;5061979;28;20045;-86
2024/03/04 04:07:13;;;;;;;100.80;27.00;;;6.00;99.90;;;;;;5065172;28;20110;-86
2024/03/04 04:09:40;;;;;;;84.38;27.15;;;5.10;99.90;;;;;;5066166;28;20041;-85
2024/03/04 04:12:07;;;;;;;101.40;26.83;;;5.00;99.90;;;;;;5078022;28;20037;-86
2024/03/04 04:14:34;;;;;;;104.55;28.63;;;5.10;99.90;;;;;;5091974;28;20048;-86
2024/03/04 04:17:01;;;;;;;125.55;28.40;;;5.10;99.90;;;;;;5065502;28;20518;-86
2024/03/04 04:19:27;;;;;;;79.45;27.60;;;5.00;99.90;;;;;;5065559;28;20045;-86
2024/03/04 04:21:54;;;;;;;83.30;26.73;;;5.90;99.90;;;;;;5067312;28;20041;-86
2024/03/04 04:24:21;;;;;;;120.28;27.35;;;5.90;99.90;;;;;;5050110;28;20041;-86
2024/03/04 04:26:48;;;;;;;113.70;27.98;;;5.80;99.90;;;;;;5065093;28;20041;-86
2024/03/04 04:29:15;;;;;;;193.18;31.17;;;5.90;99.90;;;;;;5048451;28;20045;-86
2024/03/04 04:31:42;;;;;;;196.50;28.77;;;5.00;99.90;;;;;;5066923;28;20041;-85
2024/03/04 04:34:08;;;;;;;113.70;29.05;;;5.80;99.90;;;;;;5073890;28;20727;-85
2024/03/04 04:36:35;;;;;;;187.73;30.58;;;5.10;99.90;;;;;;5053045;28;20136;-86
2024/03/04 04:39:02;;;;;;;185.98;30.00;;;5.50;99.90;;;;;;5073142;28;20037;-86
2024/03/04 04:41:30;;;;;;;122.00;28.08;;;5.00;99.90;;;;;;5064028;28;20095;-86
2024/03/04 04:43:56;;;;;;;136.15;29.20;;;5.00;99.90;;;;;;5066462;28;20040;-86
2024/03/04 04:46:23;;;;;;;79.07;27.50;;;5.40;99.90;;;;;;5074721;28;20064;-86
2024/03/04 04:48:49;;;;;;;139.57;28.85;;;5.00;99.90;;;;;;5062959;28;20048;-86
2024/03/04 04:51:16;;;;;;;158.27;28.60;;;6.00;99.90;;;;;;5069347;28;20116;-85
2024/03/04 04:53:43;;;;;;;102.32;28.95;;;5.00;99.90;;;;;;5068679;28;20581;-85
2024/03/04 04:56:16;;;;;;;67.85;26.48;;;5.00;99.90;;;;;;5052365;28;20041;-85
2024/03/04 04:58:43;;;;;;;74.35;27.42;;;5.60;99.90;;;;;;5081293;28;20094;-86
2024/03/04 05:01:10;;;;;;;58.45;25.33;;;5.10;99.90;;;;;;5062435;28;20126;-85
2024/03/04 05:03:36;;;;;;;78.57;26.92;;;5.10;99.90;;;;;;5068098;28;20076;-85
2024/03/04 05:06:03;;;;;;;54.17;26.27;;;5.10;99.90;;;;;;5052030;28;20179;-85
2024/03/04 05:08:30;;;;;;;74.72;27.55;;;5.20;99.90;;;;;;5078940;28;20045;-85
2024/03/04 05:10:56;;;;;;;50.47;26.38;;;5.20;99.90;;;;;;5068250;28;20033;-85
2024/03/04 05:13:23;;;;;;;50.30;25.92;;;5.20;99.90;;;;;;5055590;28;20044;-86
2024/03/04 05:15:52;;;;;;;50.15;26.63;;;6.20;99.90;;;;;;5084961;28;20422;-86
2024/03/04 05:18:19;;;;;;;49.58;25.50;;;5.50;99.90;;;;;;5068081;28;20058;-86
2024/03/04 05:20:46;;;;;;;48.97;24.67;;;5.30;99.90;;;;;;5044529;28;20033;-86
2024/03/04 05:23:12;;;;;;;49.85;26.27;;;5.90;99.90;;;;;;5068533;28;20041;-85
2024/03/04 05:25:41;;;;;;;47.53;25.35;;;5.40;99.90;;;;;;5068193;28;20045;-85
2024/03/04 05:28:08;;;;;;;47.75;25.65;;;5.40;99.90;;;;;;5084268;28;20053;-86
2024/03/04 05:30:35;;;;;;;45.25;24.35;;;5.40;99.90;;;;;;5042548;28;20100;-86
2024/03/04 05:33:03;;;;;;;45.90;25.15;;;5.80;99.90;;;;;;5083413;28;20033;-86
2024/03/04 05:35:30;;;;;;;47.58;25.58;;;5.50;99.90;;;;;;5051502;28;20750;-86
2024/03/04 05:37:57;;;;;;;46.90;25.05;;;5.50;99.90;;;;;;5064290;28;20061;-86
2024/03/04 05:40:24;;;;;;;47.72;25.65;;;5.60;99.90;;;;;;5062727;28;20098;-86
2024/03/04 05:42:51;;;;;;;51.42;25.35;;;5.50;99.90;;;;;;5067564;28;20040;-86
2024/03/04 05:45:17;;;;;;;49.83;26.58;;;6.00;99.90;;;;;;5051280;28;20124;-86
2024/03/04 05:47:44;;;;;;;46.50;24.95;;;5.60;99.90;;;;;;5050897;28;20041;-85
2024/03/04 05:50:14;;;;;;;47.15;24.27;;;5.60;99.90;;;;;;5062743;28;20041;-86
2024/03/04 05:52:45;;;;;;;47.08;25.40;;;5.80;99.90;;;;;;5084637;28;20041;-86
2024/03/04 05:55:13;;;;;;;48.08;24.48;;;5.60;99.90;;;;;;5067841;28;20095;-86
2024/03/04 05:57:42;;;;;;;46.63;24.85;;;5.60;99.90;;;;;;5060113;28;20052;-86
2024/03/04 06:00:14;;;;;;;50.05;25.83;;;5.60;99.90;;;;;;5062106;28;20059;-86
2024/03/04 06:02:42;;;;;;;47.40;24.88;;;5.60;99.90;;;;;;5076700;28;20045;-86
2024/03/04 06:05:11;;;;;;;46.70;24.13;;;6.50;99.90;;;;;;5070685;28;20131;-86
2024/03/04 06:07:38;;;;;;;50.28;26.15;;;6.20;99.90;;;;;;5072024;28;20041;-86
2024/03/04 06:10:05;;;;;;;50.80;26.10;;;5.60;99.90;;;;;;5064027;28;20125;-86
2024/03/04 06:12:32;;;;;;;47.67;25.25;;;5.60;99.90;;;;;;5067793;28;20049;-85
2024/03/04 06:14:59;;;;;;;43.70;24.30;;;5.70;99.90;;;;;;5050233;28;20034;-86
2024/03/04 06:17:27;;;;;;;44.22;24.73;;;5.70;99.90;;;;;;5072781;28;20095;-86
2024/03/04 06:19:54;;;;;;;46.35;25.35;;;6.10;99.90;;;;;;5050913;28;20077;-86
2024/03/04 06:22:21;;;;;;;45.88;24.52;;;6.40;99.90;;;;;;5067056;28;20087;-86
2024/03/04 06:24:48;;;;;;;47.35;25.00;;;5.70;99.90;;;;;;5076823;28;20049;-86
2024/03/04 06:27:16;;;;;;;48.28;26.00;;;6.30;99.90;;;;;;5072506;28;20051;-86
2024/03/04 06:29:43;;;;;;;46.50;24.95;;;5.70;99.90;;;;;;5087565;28;20132;-86
2024/03/04 06:32:09;;;;;;;47.25;25.23;;;5.70;99.90;;;;;;5066503;28;20149;-86
2024/03/04 06:34:36;;;;;;;50.72;26.58;;;6.20;99.90;;;;;;5078300;28;20486;-86
2024/03/04 06:37:03;;;;;;;47.63;25.05;;;5.90;99.90;;;;;;5077672;28;20039;-85
2024/03/04 06:39:29;;;;;;;47.63;25.25;;;5.70;99.90;;;;;;5069995;28;20062;-86
2024/03/04 06:41:56;;;;;;;48.08;25.15;;;6.60;99.90;;;;;;5072600;28;20410;-86
2024/03/04 06:44:22;;;;;;;50.85;26.73;;;5.80;99.90;;;;;;5049871;28;20490;-86
2024/03/04 06:46:49;;;;;;;45.97;25.08;;;5.80;99.90;;;;;;5050107;28;20430;-86
2024/03/04 06:49:16;;;;;;;48.38;25.33;;;6.80;99.90;;;;;;5050608;28;20049;-86
2024/03/04 06:51:42;;;;;;;47.53;25.52;;;6.10;99.90;;;;;;5078417;28;20086;-86
2024/03/04 06:54:10;;;;;;;48.67;25.60;;;6.80;99.90;;;;;;5064368;28;20188;-86
2024/03/04 06:56:36;;;;;;;48.55;25.38;;;5.80;99.90;;;;;;5066466;28;20391;-86
2024/03/04 06:59:03;;;;;;;48.17;25.40;;;5.80;99.90;;;;;;5063947;28;20049;-85
2024/03/04 07:01:30;;;;;;;47.35;25.58;;;6.40;99.90;;;;;;5062301;28;20647;-86
2024/03/04 07:03:56;;;;;;;47.60;25.80;;;5.70;99.90;;;;;;5066262;28;20418;-86
2024/03/04 07:06:23;;;;;;;51.10;25.92;;;5.80;99.90;;;;;;5068705;28;20079;-85
2024/03/04 07:08:50;;;;;;;50.15;25.70;;;5.70;99.90;;;;;;5050133;28;20041;-86
2024/03/04 07:11:16;;;;;;;48.50;26.00;;;5.90;99.90;;;;;;5067021;28;20045;-87
2024/03/04 07:13:43;;;;;;;44.45;24.25;;;5.70;99.90;;;;;;5050111;28;20049;-88
2024/03/04 07:16:15;;;;;;;47.97;26.05;;;5.70;99.90;;;;;;5067275;28;20067;-88
2024/03/04 07:18:42;;;;;;;47.35;25.20;;;5.70;99.90;;;;;;5069532;28;20083;-87
2024/03/04 07:21:16;;;;;;;47.85;25.63;;;5.70;99.90;;;;;;5070293;28;20042;-87
2024/03/04 07:23:43;;;;;;;50.13;25.90;;;5.90;99.90;;;;;;5054983;28;20068;-87
2024/03/04 07:26:10;;;;;;;50.50;25.42;;;6.80;99.90;;;;;;5072871;28;20164;-87
2024/03/04 07:28:40;;;;;;;47.15;24.65;;;6.50;99.90;;;;;;5045983;28;20054;-87
2024/03/04 07:31:07;;;;;;;50.13;26.85;;;6.20;99.90;;;;;;5039030;28;20042;-88
2024/03/04 07:33:34;;;;;;;47.70;25.27;;;6.10;99.90;;;;;;5081477;28;20044;-87
2024/03/04 07:36:01;;;;;;;49.75;27.05;;;5.70;99.90;;;;;;5068209;28;20037;-87
2024/03/04 07:38:28;;;;;;;49.65;26.77;;;5.70;99.90;;;;;;5065418;28;20121;-87
2024/03/04 07:40:54;;;;;;;49.45;26.45;;;5.70;99.90;;;;;;5049798;28;20045;-87
2024/03/04 07:43:21;;;;;;;48.65;25.80;;;5.70;99.90;;;;;;5066006;28;20044;-87
2024/03/04 07:45:48;;;;;;;50.22;26.20;;;5.70;99.90;;;;;;5052995;28;20410;-87
2024/03/04 07:48:15;;;;;;;49.83;25.73;;;6.10;99.90;;;;;;5064094;28;20037;-87
2024/03/04 07:50:41;;;;;;;52.97;26.75;;;5.80;99.90;;;;;;5067608;28;20045;-87
2024/03/04 07:53:08;;;;;;;50.80;25.73;;;6.20;99.90;;;;;;5049437;28;20040;-86
2024/03/04 07:55:34;;;;;;;54.67;27.17;;;6.70;99.90;;;;;;5061106;28;20030;-87
2024/03/04 07:58:01;;;;;;;50.85;26.30;;;6.50;99.90;;;;;;5069898;28;20506;-87
2024/03/04 08:00:28;;;;;;;57.13;27.13;;;5.90;99.90;;;;;;5071790;28;20046;-86
2024/03/04 08:02:55;;;;;;;51.30;26.55;;;6.30;99.90;;;;;;5062839;28;20483;-86
2024/03/04 08:05:22;;;;;;;56.42;27.80;;;6.30;99.90;;;;;;5036428;28;20048;-86
2024/03/04 08:07:48;;;;;;;57.10;27.95;;;7.00;99.90;;;;;;5072142;28;20490;-86
2024/03/04 08:10:16;;;;;;;58.28;26.80;;;5.90;99.90;;;;;;5069382;28;20077;-87
2024/03/04 08:12:43;;;;;;;57.50;27.80;;;6.00;99.90;;;;;;5077280;28;20045;-87
2024/03/04 08:15:10;;;;;;;57.03;28.52;;;6.00;99.90;;;;;;5078941;28;20078;-86
2024/03/04 08:17:36;;;;;;;62.22;29.52;;;6.10;99.90;;;;;;5077438;28;20090;-86
2024/03/04 08:20:04;;;;;;;56.72;27.10;;;7.00;99.90;;;;;;5079444;28;20063;-87
2024/03/04 08:22:32;;;;;;;60.63;28.48;;;6.20;99.90;;;;;;5073840;28;20099;-87
2024/03/04 08:24:59;;;;;;;67.55;30.42;;;6.20;99.90;;;;;;5076620;28;20446;-86
2024/03/04 08:27:26;;;;;;;59.67;29.27;;;6.40;99.90;;;;;;5072353;28;20119;-87
2024/03/04 08:29:52;;;;;;;75.70;35.05;;;6.80;99.90;;;;;;5071627;28;20041;-87
2024/03/04 08:32:19;;;;;;;70.60;33.17;;;6.40;99.90;;;;;;5074447;28;20486;-86
2024/03/04 08:34:47;;;;;;;61.78;29.27;;;5.80;99.90;;;;;;5073072;28;20121;-87
2024/03/04 08:37:14;;;;;;;63.50;30.15;;;6.50;99.90;;;;;;5075573;28;20036;-87
2024/03/04 08:39:40;;;;;;;72.10;30.27;;;7.50;99.90;;;;;;5058530;28;20038;-87
2024/03/04 08:42:07;;;;;;;66.88;31.23;;;7.30;99.90;;;;;;5084044;28;20044;-87
2024/03/04 08:44:34;;;;;;;69.47;31.60;;;6.60;99.90;;;;;;5071223;28;20052;-87
2024/03/04 08:47:01;;;;;;;68.13;31.83;;;6.70;99.90;;;;;;5052897;28;20056;-87
2024/03/04 08:49:27;;;;;;;72.65;31.38;;;6.70;99.90;;;;;;5059803;28;20049;-85
2024/03/04 08:51:56;;;;;;;68.88;30.52;;;7.40;99.90;;;;;;5053652;28;20037;-86
2024/03/04 08:54:23;;;;;;;71.47;30.90;;;7.20;99.90;;;;;;5057117;28;20037;-89
2024/03/04 08:56:49;;;;;;;77.30;32.22;;;6.80;99.90;;;;;;5068177;28;20029;-89
2024/03/04 08:59:16;;;;;;;82.15;33.13;;;6.90;99.90;;;;;;5056402;28;20033;-88
2024/03/04 09:01:43;;;;;;;82.05;33.30;;;7.90;99.90;;;;;;5066921;28;20383;-88
2024/03/04 09:04:09;;;;;;;85.97;32.92;;;8.00;99.90;;;;;;5053363;28;20071;-88
2024/03/04 09:06:36;;;;;;;82.63;31.73;;;6.90;99.90;;;;;;5072233;28;20045;-87
2024/03/04 09:09:03;;;;;;;83.95;32.88;;;7.20;99.90;;;;;;5089626;28;20041;-87
2024/03/04 09:11:30;;;;;;;84.20;33.95;;;7.50;99.90;;;;;;5065291;28;20067;-89
2024/03/04 09:13:57;;;;;;;79.57;31.48;;;7.00;99.90;;;;;;5071446;28;20554;-90
2024/03/04 09:16:23;;;;;;;87.15;32.08;;;7.00;99.90;;;;;;5058669;28;20044;-89
2024/03/04 09:18:51;;;;;;;88.28;32.38;;;7.10;99.90;;;;;;5093723;28;20434;-90
2024/03/04 09:21:17;;;;;;;88.22;34.08;;;7.50;99.90;;;;;;5064224;28;20084;-88
2024/03/04 09:23:47;;;;;;;81.57;34.00;;;7.00;99.90;;;;;;5069237;28;20064;-88
2024/03/04 09:26:14;;;;;;;89.38;31.83;;;7.10;99.90;;;;;;5086502;28;20041;-87
2024/03/04 09:28:51;;;;;;;96.55;33.60;;;7.10;99.90;;;;;;5069036;28;20055;-87
2024/03/04 09:31:18;;;;;;;75.30;30.88;;;7.10;99.90;;;;;;5042015;28;20096;-87
2024/03/04 09:33:45;;;;;;;88.40;33.65;;;7.10;99.90;;;;;;5056008;28;20037;-87
2024/03/04 09:36:13;;;;;;;90.30;32.47;;;7.10;99.90;;;;;;5072629;28;20040;-88
2024/03/04 09:38:42;;;;;;;100.18;31.98;;;7.10;99.90;;;;;;5092614;28;20408;-89
2024/03/04 09:41:10;;;;;;;95.75;32.53;;;7.50;99.90;;;;;;5052212;28;20256;-90
2024/03/04 09:43:41;;;;;;;85.90;32.28;;;7.20;99.90;;;;;;5068753;28;20063;-87
2024/03/04 09:46:09;;;;;;;94.60;34.17;;;7.20;99.90;;;;;;5052112;28;20110;-87
2024/03/04 09:48:39;;;;;;;86.45;33.85;;;7.20;99.90;;;;;;5065751;28;20528;-88
2024/03/04 09:51:08;;;;;;;93.80;35.47;;;7.60;99.90;;;;;;5068651;28;20025;-90
2024/03/04 09:53:36;;;;;;;88.88;33.20;;;7.80;99.90;;;;;;5071046;28;20167;-89
2024/03/04 09:56:04;;;;;;;88.07;32.85;;;7.90;99.90;;;;;;5052407;28;20558;-89
2024/03/04 09:58:34;;;;;;;87.82;32.53;;;7.30;99.90;;;;;;5067625;28;20077;-88
2024/03/04 10:01:02;;;;;;;80.20;32.90;;;7.40;99.90;;;;;;5061826;28;20045;-88
2024/03/04 10:03:29;;;;;;;78.32;32.75;;;7.40;99.90;;;;;;5051690;28;20048;-88
2024/03/04 10:05:56;;;;;;;66.88;29.67;;;7.60;99.90;;;;;;5064450;28;20084;-88
2024/03/04 10:08:25;;;;;;;81.85;32.55;;;7.70;99.90;;;;;;5076579;28;20490;-90
2024/03/04 10:10:52;;;;;;;86.85;32.90;;;8.60;99.90;;;;;;5064792;28;20052;-89
2024/03/04 10:13:19;;;;;;;90.30;32.30;;;8.60;99.90;;;;;;5056819;28;20049;-88
2024/03/04 10:15:46;;;;;;;76.43;31.60;;;7.70;99.90;;;;;;5050320;28;20093;-88
2024/03/04 10:18:13;;;;;;;78.97;32.08;;;8.30;99.90;;;;;;5053384;28;20045;-89
2024/03/04 10:20:40;;;;;;;83.47;31.45;;;8.30;99.90;;;;;;5071249;28;20485;-90
2024/03/04 10:23:10;;;;;;;77.40;33.17;;;8.20;99.90;;;;;;5068490;28;20044;-89
2024/03/04 10:25:37;;;;;;;76.53;32.40;;;7.90;99.90;;;;;;5068583;28;20786;-90
2024/03/04 10:28:09;;;;;;;68.38;30.23;;;8.00;99.90;;;;;;5067944;28;20056;-88
2024/03/04 10:30:36;;;;;;;65.60;30.10;;;8.00;99.90;;;;;;5050917;28;20128;-88
2024/03/04 10:33:03;;;;;;;70.30;30.85;;;7.90;99.90;;;;;;5067934;28;20504;-88
2024/03/04 10:35:31;;;;;;;66.20;30.77;;;8.00;99.90;;;;;;5058091;28;20083;-87
2024/03/04 10:38:02;;;;;;;67.22;30.60;;;8.10;99.90;;;;;;5046692;28;20658;-88
2024/03/04 10:40:34;;;;;;;68.10;30.85;;;8.10;99.90;;;;;;5060132;28;20081;-88
2024/03/04 10:43:00;;;;;;;70.63;31.88;;;8.10;99.90;;;;;;5072318;28;20037;-88
2024/03/04 10:45:30;;;;;;;78.65;34.67;;;8.20;99.90;;;;;;5062724;28;20088;-88
2024/03/04 10:47:58;;;;;;;69.47;31.65;;;8.10;99.90;;;;;;5089333;28;20807;-88
2024/03/04 10:50:25;;;;;;;66.28;29.85;;;8.50;99.90;;;;;;5075686;28;20040;-90
2024/03/04 10:52:53;;;;;;;66.63;30.52;;;8.30;99.90;;;;;;5094818;28;20127;-90
2024/03/04 10:55:20;;;;;;;68.57;30.40;;;9.00;99.90;;;;;;5080037;28;20309;-90
2024/03/04 10:57:51;;;;;;;67.80;31.45;;;8.30;99.90;;;;;;5076446;28;20041;-90
2024/03/04 11:00:20;;;;;;;64.00;29.77;;;8.30;99.90;;;;;;5070004;28;20494;-90
2024/03/04 11:02:52;;;;;;;63.13;29.67;;;8.30;99.90;;;;;;5050960;28;20049;-90
2024/03/04 11:05:23;;;;;;;64.03;29.25;;;8.40;99.90;;;;;;5051061;28;20099;-90
2024/03/04 11:07:51;;;;;;;64.25;30.38;;;8.40;99.90;;;;;;5067625;28;20076;-90
2024/03/04 11:10:31;;;;;;;63.60;30.13;;;8.40;99.90;;;;;;5071512;28;20397;-89
2024/03/04 11:13:32;;;;;;;68.50;31.27;;;8.50;99.90;;;;;;5065526;28;20552;-90
2024/03/04 11:16:18;;;;;;;67.75;32.00;;;8.50;99.90;;;;;;5060754;28;20033;-89
2024/03/04 11:19:01;;;;;;;65.28;30.58;;;8.70;99.90;;;;;;5037980;28;20041;-90
2024/03/04 11:21:30;;;;;;;60.72;29.17;;;8.70;99.90;;;;;;5044571;28;20037;-90
2024/03/04 11:23:57;;;;;;;63.47;29.40;;;8.70;99.90;;;;;;5075055;28;20045;-90
2024/03/04 11:26:25;;;;;;;63.97;29.77;;;8.80;99.90;;;;;;5072592;28;20037;-90
2024/03/04 11:28:53;;;;;;;63.25;29.05;;;8.80;99.90;;;;;;5072802;28;20056;-89
2024/03/04 11:31:27;;;;;;;61.00;27.95;;;8.80;99.90;;;;;;5066753;28;20068;-89
2024/03/04 11:34:15;;;;;;;59.63;28.58;;;8.80;99.90;;;;;;5050865;28;20406;-90
2024/03/04 11:36:42;;;;;;;63.58;30.63;;;9.50;99.90;;;;;;5050185;28;20041;-90
2024/03/04 11:39:17;;;;;;;60.97;29.88;;;8.90;99.90;;;;;;5068449;28;20549;-90
2024/03/04 11:41:45;;;;;;;;;;;9.00;99.90;;;;;;5053055;28;20052;-90
2024/03/04 11:44:12;;;;;;;63.67;30.90;;;9.10;99.90;;;;;;5066854;28;19921;-90
2024/03/04 11:46:42;;;;;;;66.68;30.05;;;9.10;99.90;;;;;;5067126;28;20040;-89
2024/03/04 11:49:31;;;;;;;60.50;28.58;;;9.30;99.90;;;;;;5048928;28;20042;-89
2024/03/04 11:52:15;;;;;;;61.15;29.17;;;9.10;99.90;;;;;;5041805;28;20048;-89
2024/03/04 11:54:46;;;;;;;58.33;28.33;;;9.30;99.90;;;;;;5063072;28;20049;-89
2024/03/04 11:57:14;;;;;;;60.25;28.92;;;9.10;99.90;;;;;;5065503;28;20037;-89
2024/03/04 12:00:02;;;;;;;65.55;30.48;;;9.10;99.90;;;;;;5066332;28;20075;-89
2024/03/04 12:02:29;;;;;;;63.63;30.10;;;9.70;99.90;;;;;;5066303;28;20051;-89
2024/03/04 12:04:56;;;;;;;52.63;28.23;;;9.20;99.90;;;;;;5067236;28;20038;-89
2024/03/04 12:07:22;;;;;;;56.85;27.92;;;9.20;99.90;;;;;;5068466;28;20105;-89
2024/03/04 12:09:49;;;;;;;49.65;26.98;;;9.80;99.90;;;;;;5050279;28;20045;-89
2024/03/04 12:12:19;;;;;;;52.63;27.00;;;9.20;99.90;;;;;;5067079;28;20113;-89
2024/03/04 12:14:46;;;;;;;50.35;26.30;;;9.20;99.90;;;;;;5068335;28;20083;-89
2024/03/04 12:17:13;;;;;;;51.05;27.02;;;9.10;99.90;;;;;;5061397;28;20025;-90
2024/03/04 12:19:53;;;;;;;54.38;27.50;;;9.10;99.90;;;;;;5066705;28;20045;-89
2024/03/04 12:22:25;;;;;;;56.08;27.77;;;9.10;99.90;;;;;;5077724;28;20049;-89
2024/03/04 12:25:02;;;;;;;59.20;28.65;;;9.40;99.90;;;;;;5049810;28;20041;-89
2024/03/04 12:27:28;;;;;;;52.85;25.92;;;9.10;99.90;;;;;;5055909;28;20061;-89
2024/03/04 12:30:12;;;;;;;57.75;29.52;;;9.10;99.90;;;;;;5077345;28;20054;-89
2024/03/04 12:32:45;;;;;;;51.38;27.08;;;9.10;99.90;;;;;;5050205;28;20037;-89
2024/03/04 12:35:15;;;;;;;54.80;27.48;;;9.10;99.90;;;;;;5052607;28;20039;-89
2024/03/04 12:37:43;;;;;;;58.72;27.50;;;9.20;99.90;;;;;;5068438;28;20049;-89
2024/03/04 12:40:11;;;;;;;60.05;28.35;;;9.10;99.90;;;;;;5050104;28;20045;-89